Terminal Aerodrome Forecast
Issued by NWS Brownsville, TX

Home | Current Version | Previous Version | Text Only | Print | Product List | Glossary On
Versions: 1 2 3 4 5 6 7 8 9 10 11 12 13 14 15 16 17 18 19 20
000
FTUS44 KBRO 250648 AAA
TAFMFE
TAF AMD
KMFE 250648Z 2507/2606 13008KT P6SM BKN110
     FM250900 12006KT 4SM BR OVC009
     FM251200 13008KT 2SM BR OVC007
     FM251500 14010KT 4SM HZ OVC022
     FM252100 12009KT 4SM HZ SCT250=

USA.gov is the U.S. government's official web portal to all federal, state and local government web resources and services.